CheckWX is a tool to help pilots better visualize weather data.  It is not intended as a substitute for an official pre-flight weather briefing.

21:30:44 UTC

KTVY METAR
Bolinder Field-Tooele Valley Airport
Tooele, Utah, USA
Current

16 mins ago

KTVY 202115Z AUTO 35005KT 10SM BKN050 07/M03 A3016 RMK AO2
Observed
Oct-20 @ 21:15 UTC
Wind
  • 350° at 5 KTS
Visibility
10 SM
Flight Rules
VFR
Cloud Levels
  • Broken at 5,000' AGL
Temperature
C / 45°F
Dewpoint
-3°C / 27°F
Humidity
49%
Altimeter
30.16" Hg
Pressure
1021.32 hPa
Previous

36 mins ago

KTVY 202055Z AUTO 35005KT 10SM SCT050 07/M03 A3016 RMK AO2
Observed
Oct-20 @ 20:55 UTC
Wind
  • 350° at 5 KTS
Visibility
10 SM
Flight Rules
VFR
Cloud Levels
  • Scattered at 5,000' AGL
Temperature
C / 45°F
Dewpoint
-3°C / 27°F
Humidity
49%
Altimeter
30.16" Hg
Pressure
1021.32 hPa
Previous

56 mins ago

KTVY 202035Z AUTO 35005KT 10SM SCT050 07/M04 A3017 RMK AO2
Observed
Oct-20 @ 20:35 UTC
Wind
  • 350° at 5 KTS
Visibility
10 SM
Flight Rules
VFR
Cloud Levels
  • Scattered at 5,000' AGL
Temperature
C / 45°F
Dewpoint
-4°C / 25°F
Humidity
46%
Altimeter
30.17" Hg
Pressure
1021.72 hPa